Terminal Aerodrome Forecast
Issued by NWS Cleveland, OH

Home | Current Version | Previous Version | Graphics & Text | Print | Product List | Glossary On
Versions: 1 2 3 4 5 6 7 8 9 10 11 12 13 14 15 16 17 18 19 20 21 22
640
FTUS41 KCLE 200235 AAB
TAFTOL
TAF AMD
KTOL 200235Z 2003/2024 VRB03KT 3SM BR SCT004 BKN025
      TEMPO 2003/2006 2SM BR BKN004
     FM200600 00000KT 2SM BR BKN004
      TEMPO 2009/2013 1/2SM FG BKN002
     FM201300 00000KT 6SM BR BKN006 OVC025
     FM201500 21004KT P6SM BKN025
     FM201800 21005KT P6SM SCT025 BKN035=

USA.gov is the U.S. government's official web portal to all federal, state and local government web resources and services.